KBURKNID

Guest
Details From KBUR - BOB HOPE
To KNID - China Lake Naws
Flight Number -
Tags generated
Created
Modified
Stats Distance 95 nm / 176 km
Max Altitude 0 ft / 0 m
Waypoints 2
Social Downloads 0
Likes 0
Share VATSIM

Download

Looking for another format? Having issues loading an existing format? Contact us
Advertisement - Login to hide

Notes

Basic altitude profile: - Ascent Rate: 1500ft/min - Ascent Speed: 140kts - Cruise Altitude: 6000ft - Cruise Speed: 170kts - Descent Rate: 1500ft/min - Descent Speed: 140kts Options: - Use NATs: yes - Use PACOTS: no - Use low airways: no - Use high airways: no

Route

KBUR KNID

ID Type Via Altitude Latitude Longitude Leg Dist Tot Dist Heading (true) Name
O KBUR APT - 0 ft / 0 m 34.20048˚ -118.35877˚ - 0 nm - BOB HOPE
O KNID APT - 0 ft / 0 m 35.68552˚ -117.69159˚ 95 nm 95 nm 20° / 20° China Lake Naws

Altitude Profile

Advertisement - Login to hide

KBUR

Details ICAO KBUR (BUR)
Name BOB HOPE
Region United States
Timezone America/Los_Angeles (UTC-7.0)
Stats Elevation 778 ft / 237 m (AMSL)
Location 34.200475° -118.358767°
Runways 2
Magnetic Variation 12.008° E

METAR

KBUR 230653Z AUTO 00000KT 10SM OVC029 16/11 A2993 RMK AO2 SLP124 T01560111

Decode

TAF

TAF AMD KBUR 230617Z 2306/2406 VRB03KT P6SM OVC030 FM231200 VRB03KT P6SM BKN025 OVC035 FM231700 16006KT P6SM SCT025 BKN035 FM232000 17008KT P6SM BKN050

Decode

Departure Runways

ID Width Length Bearing (true) Bearing (mag) Surface Threshold Offset Overrun Length
08 151 ft / 46 m 5,835 ft / 1,779 m 90.92° 78.91° Asphalt 0 ft / 0 m 259 ft / 79 m
15 151 ft / 46 m 6,962 ft / 2,122 m 167.12° 155.11° Asphalt 909 ft / 277 m 0 ft / 0 m
26 151 ft / 46 m 5,835 ft / 1,779 m 270.93° 258.92° Asphalt 0 ft / 0 m 253 ft / 77 m
33 151 ft / 46 m 6,962 ft / 2,122 m 347.12° 335.11° Asphalt 351 ft / 107 m 0 ft / 0 m

KNID

Details ICAO KNID (NID)
Name China Lake Naws
Region United States
Timezone America/Los_Angeles (UTC-7.0)
Stats Elevation 2,283 ft / 696 m (AMSL)
Location 35.685516° -117.691590°
Runways 3
Magnetic Variation 12.156° E

METAR

KNID 230656Z AUTO 20007KT 10SM CLR 22/07 A2981 RMK AO2 SLP076 T02170067

Decode

TAF

Not found

Destination Runways

ID Width Length Bearing (true) Bearing (mag) Surface Threshold Offset Overrun Length
03 200 ft / 61 m 9,997 ft / 3,047 m 42.13° 29.97° Asphalt 0 ft / 0 m 1,000 ft / 305 m
08 200 ft / 61 m 7,687 ft / 2,343 m 90.78° 78.62° Asphalt 0 ft / 0 m 1,000 ft / 305 m
14 200 ft / 61 m 9,027 ft / 2,752 m 154.23° 142.07° Asphalt 0 ft / 0 m 1,000 ft / 305 m
21 200 ft / 61 m 9,997 ft / 3,047 m 222.15° 209.99° Asphalt 0 ft / 0 m 1,000 ft / 305 m
26 200 ft / 61 m 7,687 ft / 2,343 m 270.79° 258.63° Asphalt 0 ft / 0 m 1,000 ft / 305 m
32 200 ft / 61 m 9,027 ft / 2,752 m 334.24° 322.08° Asphalt 0 ft / 0 m 1,000 ft / 305 m

Popular Alternatives